General Aviation Weather

Text Reports

Enter one or more of the following location identifiers separated by a space:

Zip Code, Four-Character ICAO or Three-Character IATA airport codes.

METAR - Aviation Routine Weather Report
KPGD - Punta Gorda, Florida
Updated at 6:08 AM GMT on January 21, 2017 (1:08 AM EST):
SPECI KPGD 210608Z AUTO 20003KT 1 1/2SM BR CLR 17/17 A3000 RMK AO2 T01670167
TAF - Terminal Area Forecast
KPGD - Punta Gorda, Florida
Updated at 6:08 AM GMT on January 21, 2017 (1:08 AM EST):
No TAF is currently available for this location.
Decoded:
No decoded TAF is available.
PIREP - Pilot Weather Report
KPGD - Punta Gorda, Florida
Updated at 6:08 AM GMT on January 21, 2017 (1:08 AM EST):
No PIREP is currently available for this location.
AIRMET - Airmens Meteorological Information
KPGD - Punta Gorda, Florida
Updated at 6:08 AM GMT on January 21, 2017 (1:08 AM EST):
No AIRMET is currently available for this location.
SIGMET - Significant Meteorological Information
KPGD - Punta Gorda, Florida
Updated at 6:08 AM GMT on January 21, 2017 (1:08 AM EST):
No SIGMET is currently available for this location.
NOTAM - Notice to Airmen
KPGD - Punta Gorda, Florida
Updated at 6:08 AM GMT on January 21, 2017 (1:08 AM EST):
No NOTAM is currently available for this location.
Forecast Area
KPGD - Punta Gorda, Florida
Updated at 6:08 AM GMT on January 21, 2017 (1:08 AM EST):
No NOTAM is currently available for this location.
Aviation Weather Maps